sensor_id;sensor_type;location;lat;lon;timestamp;P1;durP1;ratioP1;P2;durP2;ratioP2
38226;SDS011;24026;49.446;8.576;2024-01-27T00:02:10;127.25;;;113.65;;
38226;SDS011;24026;49.446;8.576;2024-01-27T00:04:31;124.20;;;110.85;;
38226;SDS011;24026;49.446;8.576;2024-01-27T00:06:51;126.55;;;112.95;;
38226;SDS011;24026;49.446;8.576;2024-01-27T00:09:11;127.97;;;114.35;;
38226;SDS011;24026;49.446;8.576;2024-01-27T00:11:32;125.80;;;112.28;;
38226;SDS011;24026;49.446;8.576;2024-01-27T00:13:52;125.00;;;111.55;;
38226;SDS011;24026;49.446;8.576;2024-01-27T00:16:13;122.07;;;108.82;;
38226;SDS011;24026;49.446;8.576;2024-01-27T00:18:35;124.80;;;111.28;;
38226;SDS011;24026;49.446;8.576;2024-01-27T00:20:57;124.18;;;110.85;;
38226;SDS011;24026;49.446;8.576;2024-01-27T00:23:17;123.93;;;110.60;;
38226;SDS011;24026;49.446;8.576;2024-01-27T00:25:37;126.22;;;112.68;;
38226;SDS011;24026;49.446;8.576;2024-01-27T00:27:58;125.25;;;111.78;;
38226;SDS011;24026;49.446;8.576;2024-01-27T00:30:18;124.70;;;111.25;;
38226;SDS011;24026;49.446;8.576;2024-01-27T00:32:38;123.82;;;110.40;;
38226;SDS011;24026;49.446;8.576;2024-01-27T00:34:59;126.60;;;113.03;;
38226;SDS011;24026;49.446;8.576;2024-01-27T00:37:19;126.25;;;112.60;;
38226;SDS011;24026;49.446;8.576;2024-01-27T00:39:40;125.57;;;111.93;;
38226;SDS011;24026;49.446;8.576;2024-01-27T00:42:00;125.35;;;111.82;;
38226;SDS011;24026;49.446;8.576;2024-01-27T00:44:21;125.10;;;111.63;;
38226;SDS011;24026;49.446;8.576;2024-01-27T00:46:41;125.70;;;112.18;;
38226;SDS011;24026;49.446;8.576;2024-01-27T00:49:01;125.60;;;111.95;;
38226;SDS011;24026;49.446;8.576;2024-01-27T00:51:22;124.85;;;111.35;;
38226;SDS011;24026;49.446;8.576;2024-01-27T00:53:42;124.68;;;111.28;;
38226;SDS011;24026;49.446;8.576;2024-01-27T00:56:03;125.53;;;112.03;;
38226;SDS011;24026;49.446;8.576;2024-01-27T00:58:24;125.60;;;112.07;;
38226;SDS011;24026;49.446;8.576;2024-01-27T01:00:44;124.53;;;111.03;;
38226;SDS011;24026;49.446;8.576;2024-01-27T01:03:05;124.47;;;111.10;;
38226;SDS011;24026;49.446;8.576;2024-01-27T01:05:25;124.55;;;110.95;;
38226;SDS011;24026;49.446;8.576;2024-01-27T01:07:45;125.50;;;111.93;;
38226;SDS011;24026;49.446;8.576;2024-01-27T01:10:06;125.05;;;111.45;;
38226;SDS011;24026;49.446;8.576;2024-01-27T01:12:27;123.35;;;109.97;;
38226;SDS011;24026;49.446;8.576;2024-01-27T01:14:47;126.20;;;112.57;;
38226;SDS011;24026;49.446;8.576;2024-01-27T01:17:08;125.32;;;111.57;;
38226;SDS011;24026;49.446;8.576;2024-01-27T01:19:28;126.88;;;113.28;;
38226;SDS011;24026;49.446;8.576;2024-01-27T01:21:48;122.35;;;109.03;;
38226;SDS011;24026;49.446;8.576;2024-01-27T01:24:09;125.40;;;111.63;;
38226;SDS011;24026;49.446;8.576;2024-01-27T01:26:29;125.22;;;111.72;;
38226;SDS011;24026;49.446;8.576;2024-01-27T01:28:50;125.10;;;111.65;;
38226;SDS011;24026;49.446;8.576;2024-01-27T01:31:11;125.20;;;111.72;;
38226;SDS011;24026;49.446;8.576;2024-01-27T01:33:31;125.45;;;112.00;;
38226;SDS011;24026;49.446;8.576;2024-01-27T01:35:52;125.40;;;111.95;;
38226;SDS011;24026;49.446;8.576;2024-01-27T01:38:13;125.68;;;112.15;;
38226;SDS011;24026;49.446;8.576;2024-01-27T01:40:33;124.88;;;111.50;;
38226;SDS011;24026;49.446;8.576;2024-01-27T01:42:54;124.32;;;110.75;;
38226;SDS011;24026;49.446;8.576;2024-01-27T01:45:14;123.78;;;110.35;;
38226;SDS011;24026;49.446;8.576;2024-01-27T01:47:35;123.93;;;110.45;;
38226;SDS011;24026;49.446;8.576;2024-01-27T01:49:55;124.13;;;110.75;;
38226;SDS011;24026;49.446;8.576;2024-01-27T01:52:15;122.82;;;109.43;;
38226;SDS011;24026;49.446;8.576;2024-01-27T01:54:40;123.93;;;110.50;;
38226;SDS011;24026;49.446;8.576;2024-01-27T01:57:00;123.15;;;109.82;;
38226;SDS011;24026;49.446;8.576;2024-01-27T01:59:21;123.78;;;110.40;;
38226;SDS011;24026;49.446;8.576;2024-01-27T02:01:41;123.57;;;110.20;;
38226;SDS011;24026;49.446;8.576;2024-01-27T02:04:01;124.00;;;110.45;;
38226;SDS011;24026;49.446;8.576;2024-01-27T02:06:24;125.32;;;111.82;;
38226;SDS011;24026;49.446;8.576;2024-01-27T02:08:44;121.75;;;108.40;;
38226;SDS011;24026;49.446;8.576;2024-01-27T02:11:05;123.80;;;110.35;;
38226;SDS011;24026;49.446;8.576;2024-01-27T02:13:25;124.65;;;111.13;;
38226;SDS011;24026;49.446;8.576;2024-01-27T02:15:47;123.82;;;110.45;;
38226;SDS011;24026;49.446;8.576;2024-01-27T02:18:08;122.75;;;109.28;;
38226;SDS011;24026;49.446;8.576;2024-01-27T02:20:29;124.57;;;111.18;;
38226;SDS011;24026;49.446;8.576;2024-01-27T02:22:49;123.25;;;109.93;;
38226;SDS011;24026;49.446;8.576;2024-01-27T02:25:10;124.25;;;110.68;;
38226;SDS011;24026;49.446;8.576;2024-01-27T02:27:30;123.57;;;110.22;;
38226;SDS011;24026;49.446;8.576;2024-01-27T02:29:50;123.25;;;109.90;;
38226;SDS011;24026;49.446;8.576;2024-01-27T02:32:11;123.88;;;110.47;;
38226;SDS011;24026;49.446;8.576;2024-01-27T02:34:31;124.30;;;110.80;;
38226;SDS011;24026;49.446;8.576;2024-01-27T02:36:52;124.10;;;110.65;;
38226;SDS011;24026;49.446;8.576;2024-01-27T02:39:12;124.15;;;110.68;;
38226;SDS011;24026;49.446;8.576;2024-01-27T02:41:33;124.22;;;110.78;;
38226;SDS011;24026;49.446;8.576;2024-01-27T02:43:58;123.15;;;109.85;;
38226;SDS011;24026;49.446;8.576;2024-01-27T02:46:19;123.30;;;110.00;;
38226;SDS011;24026;49.446;8.576;2024-01-27T02:48:42;126.50;;;112.93;;
38226;SDS011;24026;49.446;8.576;2024-01-27T02:51:02;125.03;;;111.60;;
38226;SDS011;24026;49.446;8.576;2024-01-27T02:53:24;125.00;;;111.45;;
38226;SDS011;24026;49.446;8.576;2024-01-27T02:55:44;123.78;;;110.18;;
38226;SDS011;24026;49.446;8.576;2024-01-27T02:58:04;123.30;;;109.90;;
38226;SDS011;24026;49.446;8.576;2024-01-27T03:00:25;124.00;;;110.43;;
38226;SDS011;24026;49.446;8.576;2024-01-27T03:02:45;123.60;;;110.05;;
38226;SDS011;24026;49.446;8.576;2024-01-27T03:05:06;124.05;;;110.45;;
38226;SDS011;24026;49.446;8.576;2024-01-27T03:07:27;124.57;;;111.07;;
38226;SDS011;24026;49.446;8.576;2024-01-27T03:09:48;123.10;;;109.82;;
38226;SDS011;24026;49.446;8.576;2024-01-27T03:12:08;123.60;;;110.10;;
38226;SDS011;24026;49.446;8.576;2024-01-27T03:14:28;123.07;;;109.75;;
38226;SDS011;24026;49.446;8.576;2024-01-27T03:16:49;123.10;;;109.63;;
38226;SDS011;24026;49.446;8.576;2024-01-27T03:19:10;123.53;;;110.03;;
38226;SDS011;24026;49.446;8.576;2024-01-27T03:21:30;123.93;;;110.38;;
38226;SDS011;24026;49.446;8.576;2024-01-27T03:23:51;123.57;;;109.93;;
38226;SDS011;24026;49.446;8.576;2024-01-27T03:26:11;123.50;;;109.80;;
38226;SDS011;24026;49.446;8.576;2024-01-27T03:28:32;123.47;;;109.97;;
38226;SDS011;24026;49.446;8.576;2024-01-27T03:30:52;123.32;;;109.85;;
38226;SDS011;24026;49.446;8.576;2024-01-27T03:33:12;123.45;;;110.05;;
38226;SDS011;24026;49.446;8.576;2024-01-27T03:35:33;123.63;;;110.15;;
38226;SDS011;24026;49.446;8.576;2024-01-27T03:37:53;121.13;;;107.68;;
38226;SDS011;24026;49.446;8.576;2024-01-27T03:40:13;122.72;;;109.38;;
38226;SDS011;24026;49.446;8.576;2024-01-27T03:42:34;121.45;;;108.07;;
38226;SDS011;24026;49.446;8.576;2024-01-27T03:44:54;120.90;;;107.70;;
38226;SDS011;24026;49.446;8.576;2024-01-27T03:47:15;122.85;;;109.45;;
38226;SDS011;24026;49.446;8.576;2024-01-27T03:49:35;124.35;;;110.65;;
38226;SDS011;24026;49.446;8.576;2024-01-27T03:51:56;121.97;;;108.57;;
38226;SDS011;24026;49.446;8.576;2024-01-27T03:54:16;122.82;;;109.32;;
38226;SDS011;24026;49.446;8.576;2024-01-27T03:56:37;122.25;;;108.95;;
38226;SDS011;24026;49.446;8.576;2024-01-27T03:58:57;122.60;;;109.25;;
38226;SDS011;24026;49.446;8.576;2024-01-27T04:01:17;123.85;;;110.45;;
38226;SDS011;24026;49.446;8.576;2024-01-27T04:03:38;124.40;;;110.82;;
38226;SDS011;24026;49.446;8.576;2024-01-27T04:05:58;122.57;;;109.07;;
38226;SDS011;24026;49.446;8.576;2024-01-27T04:08:19;123.22;;;109.68;;
38226;SDS011;24026;49.446;8.576;2024-01-27T04:10:39;121.03;;;107.65;;
38226;SDS011;24026;49.446;8.576;2024-01-27T04:12:59;123.35;;;109.85;;
38226;SDS011;24026;49.446;8.576;2024-01-27T04:15:20;122.45;;;108.95;;
38226;SDS011;24026;49.446;8.576;2024-01-27T04:17:40;122.32;;;108.95;;
38226;SDS011;24026;49.446;8.576;2024-01-27T04:20:02;122.82;;;109.47;;
38226;SDS011;24026;49.446;8.576;2024-01-27T04:22:22;123.95;;;110.50;;
38226;SDS011;24026;49.446;8.576;2024-01-27T04:24:43;121.85;;;108.57;;
38226;SDS011;24026;49.446;8.576;2024-01-27T04:27:03;122.72;;;109.22;;
38226;SDS011;24026;49.446;8.576;2024-01-27T04:29:24;122.75;;;109.25;;
38226;SDS011;24026;49.446;8.576;2024-01-27T04:31:44;121.30;;;108.05;;
38226;SDS011;24026;49.446;8.576;2024-01-27T04:34:04;123.68;;;110.07;;
38226;SDS011;24026;49.446;8.576;2024-01-27T04:36:28;123.30;;;109.80;;
38226;SDS011;24026;49.446;8.576;2024-01-27T04:38:51;121.20;;;107.40;;
38226;SDS011;24026;49.446;8.576;2024-01-27T04:41:11;120.63;;;107.25;;
38226;SDS011;24026;49.446;8.576;2024-01-27T04:43:32;120.95;;;107.70;;
38226;SDS011;24026;49.446;8.576;2024-01-27T04:45:52;122.10;;;108.45;;
38226;SDS011;24026;49.446;8.576;2024-01-27T04:48:13;121.82;;;108.43;;
38226;SDS011;24026;49.446;8.576;2024-01-27T04:50:33;121.85;;;108.43;;
38226;SDS011;24026;49.446;8.576;2024-01-27T04:52:53;121.95;;;107.47;;
38226;SDS011;24026;49.446;8.576;2024-01-27T04:55:14;122.07;;;108.43;;
38226;SDS011;24026;49.446;8.576;2024-01-27T04:57:34;121.05;;;107.47;;
38226;SDS011;24026;49.446;8.576;2024-01-27T04:59:55;121.93;;;108.18;;
38226;SDS011;24026;49.446;8.576;2024-01-27T05:02:15;122.25;;;108.85;;
38226;SDS011;24026;49.446;8.576;2024-01-27T05:04:36;121.68;;;108.43;;
38226;SDS011;24026;49.446;8.576;2024-01-27T05:06:57;121.35;;;107.65;;
38226;SDS011;24026;49.446;8.576;2024-01-27T05:09:17;122.60;;;109.10;;
38226;SDS011;24026;49.446;8.576;2024-01-27T05:11:38;121.68;;;108.25;;
38226;SDS011;24026;49.446;8.576;2024-01-27T05:13:59;122.18;;;108.88;;
38226;SDS011;24026;49.446;8.576;2024-01-27T05:16:20;121.38;;;108.07;;
38226;SDS011;24026;49.446;8.576;2024-01-27T05:18:40;122.75;;;109.35;;
38226;SDS011;24026;49.446;8.576;2024-01-27T05:21:00;123.78;;;110.20;;
38226;SDS011;24026;49.446;8.576;2024-01-27T05:23:21;122.28;;;108.93;;
38226;SDS011;24026;49.446;8.576;2024-01-27T05:25:41;123.15;;;109.78;;
38226;SDS011;24026;49.446;8.576;2024-01-27T05:28:02;121.10;;;107.93;;
38226;SDS011;24026;49.446;8.576;2024-01-27T05:30:22;123.03;;;109.68;;
38226;SDS011;24026;49.446;8.576;2024-01-27T05:32:43;123.35;;;109.70;;
38226;SDS011;24026;49.446;8.576;2024-01-27T05:35:03;122.60;;;109.18;;
38226;SDS011;24026;49.446;8.576;2024-01-27T05:37:25;120.95;;;107.72;;
38226;SDS011;24026;49.446;8.576;2024-01-27T05:39:45;122.30;;;108.82;;
38226;SDS011;24026;49.446;8.576;2024-01-27T05:42:06;121.35;;;108.10;;
38226;SDS011;24026;49.446;8.576;2024-01-27T05:44:26;122.22;;;108.82;;
38226;SDS011;24026;49.446;8.576;2024-01-27T05:46:47;122.60;;;109.20;;
38226;SDS011;24026;49.446;8.576;2024-01-27T05:49:07;121.00;;;107.47;;
38226;SDS011;24026;49.446;8.576;2024-01-27T05:51:27;120.82;;;107.22;;
38226;SDS011;24026;49.446;8.576;2024-01-27T05:53:48;122.38;;;108.88;;
38226;SDS011;24026;49.446;8.576;2024-01-27T05:56:09;121.65;;;108.35;;
38226;SDS011;24026;49.446;8.576;2024-01-27T05:58:30;120.90;;;107.55;;
38226;SDS011;24026;49.446;8.576;2024-01-27T06:00:50;120.85;;;107.60;;
38226;SDS011;24026;49.446;8.576;2024-01-27T06:03:11;121.78;;;107.60;;
38226;SDS011;24026;49.446;8.576;2024-01-27T06:05:31;121.97;;;108.63;;
38226;SDS011;24026;49.446;8.576;2024-01-27T06:07:51;122.55;;;109.25;;
38226;SDS011;24026;49.446;8.576;2024-01-27T06:10:12;123.10;;;109.57;;
38226;SDS011;24026;49.446;8.576;2024-01-27T06:12:33;121.03;;;107.72;;
38226;SDS011;24026;49.446;8.576;2024-01-27T06:14:53;122.72;;;109.38;;
38226;SDS011;24026;49.446;8.576;2024-01-27T06:17:13;123.30;;;107.90;;
38226;SDS011;24026;49.446;8.576;2024-01-27T06:19:36;122.28;;;108.15;;
38226;SDS011;24026;49.446;8.576;2024-01-27T06:21:57;120.95;;;107.68;;
38226;SDS011;24026;49.446;8.576;2024-01-27T06:24:18;121.80;;;108.38;;
38226;SDS011;24026;49.446;8.576;2024-01-27T06:26:39;121.93;;;108.50;;
38226;SDS011;24026;49.446;8.576;2024-01-27T06:28:59;121.93;;;107.90;;
38226;SDS011;24026;49.446;8.576;2024-01-27T06:31:20;122.25;;;107.60;;
38226;SDS011;24026;49.446;8.576;2024-01-27T06:33:41;120.60;;;107.32;;
38226;SDS011;24026;49.446;8.576;2024-01-27T06:36:01;121.60;;;108.22;;
38226;SDS011;24026;49.446;8.576;2024-01-27T06:38:22;121.70;;;108.30;;
38226;SDS011;24026;49.446;8.576;2024-01-27T06:40:43;120.82;;;107.55;;
38226;SDS011;24026;49.446;8.576;2024-01-27T06:43:03;123.10;;;109.60;;
38226;SDS011;24026;49.446;8.576;2024-01-27T06:45:24;121.63;;;108.22;;
38226;SDS011;24026;49.446;8.576;2024-01-27T06:47:44;121.40;;;108.00;;
38226;SDS011;24026;49.446;8.576;2024-01-27T06:50:04;122.05;;;108.50;;
38226;SDS011;24026;49.446;8.576;2024-01-27T06:52:25;120.78;;;107.60;;
38226;SDS011;24026;49.446;8.576;2024-01-27T06:54:46;120.75;;;107.35;;
38226;SDS011;24026;49.446;8.576;2024-01-27T06:57:06;122.47;;;109.07;;
38226;SDS011;24026;49.446;8.576;2024-01-27T06:59:37;122.25;;;108.88;;
38226;SDS011;24026;49.446;8.576;2024-01-27T07:01:57;119.50;;;106.32;;
38226;SDS011;24026;49.446;8.576;2024-01-27T07:04:17;120.43;;;106.97;;
38226;SDS011;24026;49.446;8.576;2024-01-27T07:06:38;120.05;;;106.85;;
38226;SDS011;24026;49.446;8.576;2024-01-27T07:08:58;121.45;;;108.05;;
38226;SDS011;24026;49.446;8.576;2024-01-27T07:11:19;121.80;;;108.53;;
38226;SDS011;24026;49.446;8.576;2024-01-27T07:13:40;120.32;;;106.80;;
38226;SDS011;24026;49.446;8.576;2024-01-27T07:16:01;121.47;;;107.30;;
38226;SDS011;24026;49.446;8.576;2024-01-27T07:18:22;121.07;;;107.72;;
38226;SDS011;24026;49.446;8.576;2024-01-27T07:20:43;120.90;;;107.65;;
38226;SDS011;24026;49.446;8.576;2024-01-27T07:23:03;121.65;;;107.28;;
38226;SDS011;24026;49.446;8.576;2024-01-27T07:25:24;121.95;;;108.15;;
38226;SDS011;24026;49.446;8.576;2024-01-27T07:27:44;121.85;;;108.47;;
38226;SDS011;24026;49.446;8.576;2024-01-27T07:30:06;123.05;;;109.68;;
38226;SDS011;24026;49.446;8.576;2024-01-27T07:32:29;122.88;;;109.45;;
38226;SDS011;24026;49.446;8.576;2024-01-27T07:34:49;123.75;;;110.22;;
38226;SDS011;24026;49.446;8.576;2024-01-27T07:37:09;121.93;;;108.53;;
38226;SDS011;24026;49.446;8.576;2024-01-27T07:39:30;123.70;;;110.03;;
38226;SDS011;24026;49.446;8.576;2024-01-27T07:41:50;123.07;;;109.35;;
38226;SDS011;24026;49.446;8.576;2024-01-27T07:44:11;121.85;;;108.55;;
38226;SDS011;24026;49.446;8.576;2024-01-27T07:46:33;120.68;;;107.40;;
38226;SDS011;24026;49.446;8.576;2024-01-27T07:48:54;122.88;;;109.40;;
38226;SDS011;24026;49.446;8.576;2024-01-27T07:51:15;121.95;;;108.55;;
38226;SDS011;24026;49.446;8.576;2024-01-27T07:53:35;121.93;;;108.60;;
38226;SDS011;24026;49.446;8.576;2024-01-27T07:55:56;121.78;;;108.32;;
38226;SDS011;24026;49.446;8.576;2024-01-27T07:58:16;121.72;;;108.32;;
38226;SDS011;24026;49.446;8.576;2024-01-27T08:00:37;123.18;;;109.72;;
38226;SDS011;24026;49.446;8.576;2024-01-27T08:02:58;121.18;;;107.90;;
38226;SDS011;24026;49.446;8.576;2024-01-27T08:05:18;120.53;;;107.32;;
38226;SDS011;24026;49.446;8.576;2024-01-27T08:07:39;122.88;;;109.43;;
38226;SDS011;24026;49.446;8.576;2024-01-27T08:09:59;121.63;;;108.25;;
38226;SDS011;24026;49.446;8.576;2024-01-27T08:12:20;122.38;;;109.10;;
38226;SDS011;24026;49.446;8.576;2024-01-27T08:14:40;123.15;;;109.72;;
38226;SDS011;24026;49.446;8.576;2024-01-27T08:17:01;124.18;;;110.50;;
38226;SDS011;24026;49.446;8.576;2024-01-27T08:19:23;122.18;;;108.80;;
38226;SDS011;24026;49.446;8.576;2024-01-27T08:21:44;122.80;;;109.53;;
38226;SDS011;24026;49.446;8.576;2024-01-27T08:24:04;123.43;;;110.03;;
38226;SDS011;24026;49.446;8.576;2024-01-27T08:26:25;122.95;;;109.60;;
38226;SDS011;24026;49.446;8.576;2024-01-27T08:28:49;122.80;;;109.43;;
38226;SDS011;24026;49.446;8.576;2024-01-27T08:31:09;123.55;;;110.05;;
38226;SDS011;24026;49.446;8.576;2024-01-27T08:33:30;121.93;;;108.60;;
38226;SDS011;24026;49.446;8.576;2024-01-27T08:35:51;121.80;;;108.45;;
38226;SDS011;24026;49.446;8.576;2024-01-27T08:38:11;121.40;;;108.15;;
38226;SDS011;24026;49.446;8.576;2024-01-27T08:40:32;121.93;;;108.68;;
38226;SDS011;24026;49.446;8.576;2024-01-27T08:42:52;122.88;;;109.57;;
38226;SDS011;24026;49.446;8.576;2024-01-27T08:45:13;122.78;;;109.45;;
38226;SDS011;24026;49.446;8.576;2024-01-27T08:47:33;122.90;;;109.30;;
38226;SDS011;24026;49.446;8.576;2024-01-27T08:49:54;121.75;;;108.45;;
38226;SDS011;24026;49.446;8.576;2024-01-27T08:52:15;122.00;;;108.70;;
38226;SDS011;24026;49.446;8.576;2024-01-27T08:54:35;121.60;;;108.32;;
38226;SDS011;24026;49.446;8.576;2024-01-27T08:56:56;122.43;;;109.03;;
38226;SDS011;24026;49.446;8.576;2024-01-27T08:59:16;123.90;;;110.40;;
38226;SDS011;24026;49.446;8.576;2024-01-27T09:01:36;122.10;;;108.72;;
38226;SDS011;24026;49.446;8.576;2024-01-27T09:03:57;122.50;;;109.20;;
38226;SDS011;24026;49.446;8.576;2024-01-27T09:06:17;123.03;;;109.60;;
38226;SDS011;24026;49.446;8.576;2024-01-27T09:08:38;123.22;;;109.90;;
38226;SDS011;24026;49.446;8.576;2024-01-27T09:10:59;123.20;;;109.70;;
38226;SDS011;24026;49.446;8.576;2024-01-27T09:13:19;123.28;;;109.80;;
38226;SDS011;24026;49.446;8.576;2024-01-27T09:15:39;123.47;;;109.93;;
38226;SDS011;24026;49.446;8.576;2024-01-27T09:18:00;121.63;;;108.43;;
38226;SDS011;24026;49.446;8.576;2024-01-27T09:20:20;122.55;;;109.22;;
38226;SDS011;24026;49.446;8.576;2024-01-27T09:22:41;124.15;;;110.75;;
38226;SDS011;24026;49.446;8.576;2024-01-27T09:25:01;124.13;;;110.65;;
38226;SDS011;24026;49.446;8.576;2024-01-27T09:27:21;122.85;;;109.60;;
38226;SDS011;24026;49.446;8.576;2024-01-27T09:29:42;123.28;;;109.97;;
38226;SDS011;24026;49.446;8.576;2024-01-27T09:32:02;123.32;;;109.95;;
38226;SDS011;24026;49.446;8.576;2024-01-27T09:34:23;122.35;;;109.00;;
38226;SDS011;24026;49.446;8.576;2024-01-27T09:36:43;121.90;;;108.72;;
38226;SDS011;24026;49.446;8.576;2024-01-27T09:39:04;123.10;;;109.80;;
38226;SDS011;24026;49.446;8.576;2024-01-27T09:41:24;124.82;;;111.38;;
38226;SDS011;24026;49.446;8.576;2024-01-27T09:43:52;123.38;;;109.93;;
38226;SDS011;24026;49.446;8.576;2024-01-27T09:46:17;123.85;;;110.40;;
38226;SDS011;24026;49.446;8.576;2024-01-27T09:48:37;123.43;;;110.15;;
38226;SDS011;24026;49.446;8.576;2024-01-27T09:50:58;124.55;;;111.05;;
38226;SDS011;24026;49.446;8.576;2024-01-27T09:53:19;122.80;;;109.55;;
38226;SDS011;24026;49.446;8.576;2024-01-27T09:55:39;122.63;;;109.50;;
38226;SDS011;24026;49.446;8.576;2024-01-27T09:58:00;123.60;;;110.30;;
38226;SDS011;24026;49.446;8.576;2024-01-27T10:00:21;122.63;;;109.32;;
38226;SDS011;24026;49.446;8.576;2024-01-27T10:02:42;121.50;;;108.32;;
38226;SDS011;24026;49.446;8.576;2024-01-27T10:05:03;122.78;;;109.53;;
38226;SDS011;24026;49.446;8.576;2024-01-27T10:07:25;122.85;;;109.55;;
38226;SDS011;24026;49.446;8.576;2024-01-27T10:09:48;122.45;;;109.35;;
38226;SDS011;24026;49.446;8.576;2024-01-27T10:12:09;123.57;;;110.38;;
38226;SDS011;24026;49.446;8.576;2024-01-27T10:14:42;122.35;;;109.20;;
38226;SDS011;24026;49.446;8.576;2024-01-27T10:17:11;123.07;;;109.78;;
38226;SDS011;24026;49.446;8.576;2024-01-27T10:19:32;121.82;;;108.72;;
38226;SDS011;24026;49.446;8.576;2024-01-27T10:21:59;122.38;;;109.13;;
38226;SDS011;24026;49.446;8.576;2024-01-27T10:24:21;122.90;;;109.63;;
38226;SDS011;24026;49.446;8.576;2024-01-27T10:26:42;123.18;;;109.88;;
38226;SDS011;24026;49.446;8.576;2024-01-27T10:29:02;120.82;;;107.75;;
38226;SDS011;24026;49.446;8.576;2024-01-27T10:31:27;121.93;;;108.75;;
38226;SDS011;24026;49.446;8.576;2024-01-27T10:33:51;123.85;;;110.55;;
38226;SDS011;24026;49.446;8.576;2024-01-27T10:36:12;122.88;;;109.78;;
38226;SDS011;24026;49.446;8.576;2024-01-27T10:38:36;124.55;;;111.05;;
38226;SDS011;24026;49.446;8.576;2024-01-27T10:40:57;123.38;;;110.20;;
38226;SDS011;24026;49.446;8.576;2024-01-27T10:43:18;123.53;;;110.30;;
38226;SDS011;24026;49.446;8.576;2024-01-27T10:45:40;123.40;;;110.18;;
38226;SDS011;24026;49.446;8.576;2024-01-27T10:48:01;124.50;;;111.28;;
38226;SDS011;24026;49.446;8.576;2024-01-27T10:50:23;123.75;;;110.55;;
38226;SDS011;24026;49.446;8.576;2024-01-27T10:52:44;125.05;;;111.75;;
38226;SDS011;24026;49.446;8.576;2024-01-27T10:55:06;125.20;;;111.78;;
38226;SDS011;24026;49.446;8.576;2024-01-27T10:57:30;124.22;;;110.93;;
38226;SDS011;24026;49.446;8.576;2024-01-27T10:59:52;124.25;;;110.97;;
38226;SDS011;24026;49.446;8.576;2024-01-27T11:02:13;125.13;;;111.85;;
38226;SDS011;24026;49.446;8.576;2024-01-27T11:04:34;124.63;;;111.35;;
38226;SDS011;24026;49.446;8.576;2024-01-27T11:06:56;124.25;;;110.97;;
38226;SDS011;24026;49.446;8.576;2024-01-27T11:09:19;124.53;;;111.22;;
38226;SDS011;24026;49.446;8.576;2024-01-27T11:11:41;123.63;;;110.35;;
38226;SDS011;24026;49.446;8.576;2024-01-27T11:14:02;124.07;;;110.80;;
38226;SDS011;24026;49.446;8.576;2024-01-27T11:16:23;124.57;;;111.10;;
38226;SDS011;24026;49.446;8.576;2024-01-27T11:18:44;124.95;;;111.70;;
38226;SDS011;24026;49.446;8.576;2024-01-27T11:21:05;125.80;;;112.30;;
38226;SDS011;24026;49.446;8.576;2024-01-27T11:23:32;126.60;;;113.20;;
38226;SDS011;24026;49.446;8.576;2024-01-27T11:26:01;126.07;;;112.78;;
38226;SDS011;24026;49.446;8.576;2024-01-27T11:28:25;124.10;;;110.75;;
38226;SDS011;24026;49.446;8.576;2024-01-27T11:30:49;123.68;;;110.45;;
38226;SDS011;24026;49.446;8.576;2024-01-27T11:33:09;125.43;;;112.18;;
38226;SDS011;24026;49.446;8.576;2024-01-27T11:35:30;125.75;;;112.47;;
38226;SDS011;24026;49.446;8.576;2024-01-27T11:37:51;126.05;;;112.70;;
38226;SDS011;24026;49.446;8.576;2024-01-27T11:40:11;126.93;;;113.40;;
38226;SDS011;24026;49.446;8.576;2024-01-27T11:42:32;125.82;;;112.65;;
38226;SDS011;24026;49.446;8.576;2024-01-27T11:44:53;125.65;;;112.38;;
38226;SDS011;24026;49.446;8.576;2024-01-27T11:47:17;126.32;;;113.00;;
38226;SDS011;24026;49.446;8.576;2024-01-27T11:49:39;125.30;;;112.07;;
38226;SDS011;24026;49.446;8.576;2024-01-27T11:52:01;126.25;;;113.00;;
38226;SDS011;24026;49.446;8.576;2024-01-27T11:54:22;124.82;;;111.60;;
38226;SDS011;24026;49.446;8.576;2024-01-27T11:56:42;126.93;;;113.38;;
38226;SDS011;24026;49.446;8.576;2024-01-27T11:59:02;127.28;;;114.00;;
38226;SDS011;24026;49.446;8.576;2024-01-27T12:01:23;125.38;;;112.20;;
38226;SDS011;24026;49.446;8.576;2024-01-27T12:03:43;125.80;;;112.30;;
38226;SDS011;24026;49.446;8.576;2024-01-27T12:06:05;126.78;;;113.47;;
38226;SDS011;24026;49.446;8.576;2024-01-27T12:08:26;126.03;;;112.85;;
38226;SDS011;24026;49.446;8.576;2024-01-27T12:10:47;126.20;;;112.97;;
38226;SDS011;24026;49.446;8.576;2024-01-27T12:13:08;126.97;;;113.70;;
38226;SDS011;24026;49.446;8.576;2024-01-27T12:15:28;125.85;;;112.55;;
38226;SDS011;24026;49.446;8.576;2024-01-27T12:17:52;126.40;;;113.03;;
38226;SDS011;24026;49.446;8.576;2024-01-27T12:20:14;125.15;;;111.93;;
38226;SDS011;24026;49.446;8.576;2024-01-27T12:22:36;125.00;;;111.85;;
38226;SDS011;24026;49.446;8.576;2024-01-27T12:25:10;126.85;;;113.65;;
38226;SDS011;24026;49.446;8.576;2024-01-27T12:29:55;123.43;;;110.20;;
38226;SDS011;24026;49.446;8.576;2024-01-27T12:32:17;125.70;;;112.32;;
38226;SDS011;24026;49.446;8.576;2024-01-27T12:34:42;125.30;;;112.07;;
38226;SDS011;24026;49.446;8.576;2024-01-27T12:37:03;125.75;;;112.43;;
38226;SDS011;24026;49.446;8.576;2024-01-27T12:39:23;127.68;;;114.28;;
38226;SDS011;24026;49.446;8.576;2024-01-27T12:41:43;124.63;;;111.43;;
38226;SDS011;24026;49.446;8.576;2024-01-27T12:44:06;127.28;;;113.97;;
38226;SDS011;24026;49.446;8.576;2024-01-27T12:46:27;126.18;;;113.03;;
38226;SDS011;24026;49.446;8.576;2024-01-27T12:48:48;126.57;;;113.20;;
38226;SDS011;24026;49.446;8.576;2024-01-27T12:51:08;127.30;;;114.05;;
38226;SDS011;24026;49.446;8.576;2024-01-27T12:53:29;124.57;;;111.47;;
38226;SDS011;24026;49.446;8.576;2024-01-27T12:55:49;127.95;;;114.65;;
38226;SDS011;24026;49.446;8.576;2024-01-27T12:58:10;128.13;;;114.80;;
38226;SDS011;24026;49.446;8.576;2024-01-27T13:00:30;127.03;;;113.72;;
38226;SDS011;24026;49.446;8.576;2024-01-27T13:02:50;126.50;;;113.22;;
38226;SDS011;24026;49.446;8.576;2024-01-27T13:05:11;127.78;;;114.40;;
38226;SDS011;24026;49.446;8.576;2024-01-27T13:07:31;127.38;;;113.88;;
38226;SDS011;24026;49.446;8.576;2024-01-27T13:09:52;125.10;;;112.00;;
38226;SDS011;24026;49.446;8.576;2024-01-27T13:12:13;126.38;;;113.18;;
38226;SDS011;24026;49.446;8.576;2024-01-27T13:14:33;127.72;;;114.50;;
38226;SDS011;24026;49.446;8.576;2024-01-27T13:16:53;128.00;;;114.68;;
38226;SDS011;24026;49.446;8.576;2024-01-27T13:19:14;127.72;;;114.47;;
38226;SDS011;24026;49.446;8.576;2024-01-27T13:21:35;127.25;;;114.07;;
38226;SDS011;24026;49.446;8.576;2024-01-27T13:23:55;125.57;;;112.43;;